sensor_id;sensor_type;location;lat;lon;timestamp;pressure;altitude;pressure_sealevel;temperature;humidity
56518;BME280;42419;48.760;2.322;2022-08-21T00:00:37;101045.91;;;22.82;42.56
56518;BME280;42419;48.760;2.322;2022-08-21T00:03:05;101019.53;;;22.72;42.84
56518;BME280;42419;48.760;2.322;2022-08-21T00:05:32;101018.75;;;22.70;42.70
56518;BME280;42419;48.760;2.322;2022-08-21T00:07:58;101032.69;;;22.78;42.97
56518;BME280;42419;48.760;2.322;2022-08-21T00:10:24;101017.06;;;22.67;42.84
56518;BME280;42419;48.760;2.322;2022-08-21T00:12:49;101025.66;;;22.75;42.75
56518;BME280;42419;48.760;2.322;2022-08-21T00:15:20;101032.91;;;22.73;43.07
56518;BME280;42419;48.760;2.322;2022-08-21T00:17:46;101028.47;;;22.72;42.82
56518;BME280;42419;48.760;2.322;2022-08-21T00:20:13;101026.72;;;22.71;42.96
56518;BME280;42419;48.760;2.322;2022-08-21T00:22:39;101015.25;;;22.68;43.11
56518;BME280;42419;48.760;2.322;2022-08-21T00:25:06;101007.16;;;22.69;43.22
56518;BME280;42419;48.760;2.322;2022-08-21T00:27:32;101007.22;;;22.68;43.16
56518;BME280;42419;48.760;2.322;2022-08-21T00:29:58;101010.00;;;22.66;43.11
56518;BME280;42419;48.760;2.322;2022-08-21T00:32:25;101012.66;;;22.66;43.21
56518;BME280;42419;48.760;2.322;2022-08-21T00:34:52;101010.03;;;22.65;43.17
56518;BME280;42419;48.760;2.322;2022-08-21T00:37:18;101016.28;;;22.65;43.29
56518;BME280;42419;48.760;2.322;2022-08-21T00:39:43;101013.66;;;22.64;43.45
56518;BME280;42419;48.760;2.322;2022-08-21T00:42:09;101012.78;;;22.63;43.21
56518;BME280;42419;48.760;2.322;2022-08-21T00:44:35;101010.41;;;22.57;43.61
56518;BME280;42419;48.760;2.322;2022-08-21T00:47:00;101013.81;;;22.61;43.33
56518;BME280;42419;48.760;2.322;2022-08-21T00:49:25;101015.69;;;22.59;43.69
56518;BME280;42419;48.760;2.322;2022-08-21T00:51:57;101009.44;;;22.58;43.79
56518;BME280;42419;48.760;2.322;2022-08-21T00:54:25;101018.47;;;22.57;43.73
56518;BME280;42419;48.760;2.322;2022-08-21T00:56:55;101010.47;;;22.56;43.65
56518;BME280;42419;48.760;2.322;2022-08-21T00:59:23;101012.34;;;22.54;43.49
56518;BME280;42419;48.760;2.322;2022-08-21T01:01:49;101021.38;;;22.51;43.31
56518;BME280;42419;48.760;2.322;2022-08-21T01:04:15;101003.94;;;22.41;43.66
56518;BME280;42419;48.760;2.322;2022-08-21T01:06:41;100995.22;;;22.36;43.62
56518;BME280;42419;48.760;2.322;2022-08-21T01:09:07;101011.78;;;22.46;43.75
56518;BME280;42419;48.760;2.322;2022-08-21T01:11:32;101011.88;;;22.44;43.66
56518;BME280;42419;48.760;2.322;2022-08-21T01:13:57;101011.06;;;22.42;43.85
56518;BME280;42419;48.760;2.322;2022-08-21T01:16:24;101012.09;;;22.39;43.76
56518;BME280;42419;48.760;2.322;2022-08-21T01:18:50;101018.38;;;22.38;44.24
56518;BME280;42419;48.760;2.322;2022-08-21T01:21:22;101017.56;;;22.36;44.25
56518;BME280;42419;48.760;2.322;2022-08-21T01:23:50;101003.63;;;22.28;43.76
56518;BME280;42419;48.760;2.322;2022-08-21T01:26:23;101016.84;;;22.33;44.23
56518;BME280;42419;48.760;2.322;2022-08-21T01:28:57;101018.63;;;22.32;44.00
56518;BME280;42419;48.760;2.322;2022-08-21T01:31:26;101016.03;;;22.31;43.90
56518;BME280;42419;48.760;2.322;2022-08-21T01:33:53;101018.84;;;22.28;43.92
56518;BME280;42419;48.760;2.322;2022-08-21T01:36:19;101013.63;;;22.25;44.09
56518;BME280;42419;48.760;2.322;2022-08-21T01:38:44;101022.41;;;22.28;44.18
56518;BME280;42419;48.760;2.322;2022-08-21T01:41:10;101025.13;;;22.27;44.15
56518;BME280;42419;48.760;2.322;2022-08-21T01:43:35;101028.78;;;22.26;44.21
56518;BME280;42419;48.760;2.322;2022-08-21T01:46:02;101024.34;;;22.25;44.14
56518;BME280;42419;48.760;2.322;2022-08-21T01:48:28;101027.19;;;22.22;43.89
56518;BME280;42419;48.760;2.322;2022-08-21T01:50:53;101016.50;;;22.20;44.10
56518;BME280;42419;48.760;2.322;2022-08-21T01:53:18;101023.69;;;22.20;44.00
56518;BME280;42419;48.760;2.322;2022-08-21T01:55:44;101009.44;;;22.18;43.90
56518;BME280;42419;48.760;2.322;2022-08-21T01:58:10;101017.59;;;22.16;44.37
56518;BME280;42419;48.760;2.322;2022-08-21T02:00:35;101015.84;;;22.15;44.20
56518;BME280;42419;48.760;2.322;2022-08-21T02:03:02;101005.25;;;22.12;44.19
56518;BME280;42419;48.760;2.322;2022-08-21T02:05:27;101020.47;;;22.12;44.23
56518;BME280;42419;48.760;2.322;2022-08-21T02:07:53;101012.41;;;22.12;43.89
56518;BME280;42419;48.760;2.322;2022-08-21T02:10:24;101018.72;;;22.11;44.46
56518;BME280;42419;48.760;2.322;2022-08-21T02:12:51;101016.09;;;22.09;44.29
56518;BME280;42419;48.760;2.322;2022-08-21T02:15:16;101013.50;;;22.08;44.57
56518;BME280;42419;48.760;2.322;2022-08-21T02:17:47;100967.13;;;21.84;44.62
56518;BME280;42419;48.760;2.322;2022-08-21T02:20:20;101001.03;;;22.07;44.69
56518;BME280;42419;48.760;2.322;2022-08-21T02:22:46;101000.16;;;22.06;44.50
56518;BME280;42419;48.760;2.322;2022-08-21T02:25:12;100994.09;;;22.01;44.63
56518;BME280;42419;48.760;2.322;2022-08-21T02:27:39;100994.06;;;22.03;44.78
56518;BME280;42419;48.760;2.322;2022-08-21T02:30:06;100996.69;;;22.04;44.82
56518;BME280;42419;48.760;2.322;2022-08-21T02:32:31;100988.84;;;22.00;44.61
56518;BME280;42419;48.760;2.322;2022-08-21T02:34:56;100985.13;;;22.02;44.74
56518;BME280;42419;48.760;2.322;2022-08-21T02:37:23;100994.19;;;22.00;44.68
56518;BME280;42419;48.760;2.322;2022-08-21T02:39:48;100997.81;;;21.99;44.81
56518;BME280;42419;48.760;2.322;2022-08-21T02:42:15;101003.22;;;21.97;44.62
56518;BME280;42419;48.760;2.322;2022-08-21T02:44:40;101001.56;;;21.94;44.45
56518;BME280;42419;48.760;2.322;2022-08-21T02:47:05;100993.72;;;21.90;44.63
56518;BME280;42419;48.760;2.322;2022-08-21T02:49:31;100985.88;;;21.84;44.76
56518;BME280;42419;48.760;2.322;2022-08-21T02:51:56;100995.63;;;21.86;44.65
56518;BME280;42419;48.760;2.322;2022-08-21T02:54:21;101003.66;;;21.86;44.79
56518;BME280;42419;48.760;2.322;2022-08-21T02:56:47;101008.22;;;21.84;44.75
56518;BME280;42419;48.760;2.322;2022-08-21T02:59:12;101003.00;;;21.81;44.49
56518;BME280;42419;48.760;2.322;2022-08-21T03:01:37;101006.59;;;21.80;44.76
56518;BME280;42419;48.760;2.322;2022-08-21T03:04:03;101009.34;;;21.79;44.73
56518;BME280;42419;48.760;2.322;2022-08-21T03:06:28;100998.69;;;21.77;44.81
56518;BME280;42419;48.760;2.322;2022-08-21T03:08:54;100997.00;;;21.75;44.87
56518;BME280;42419;48.760;2.322;2022-08-21T03:11:20;100994.31;;;21.75;44.69
56518;BME280;42419;48.760;2.322;2022-08-21T03:13:46;100971.84;;;21.57;44.66
56518;BME280;42419;48.760;2.322;2022-08-21T03:16:11;100999.88;;;21.70;44.68
56518;BME280;42419;48.760;2.322;2022-08-21T03:18:37;101000.03;;;21.67;44.74
56518;BME280;42419;48.760;2.322;2022-08-21T03:21:04;100988.47;;;21.65;44.85
56518;BME280;42419;48.760;2.322;2022-08-21T03:23:29;100975.59;;;21.53;44.84
56518;BME280;42419;48.760;2.322;2022-08-21T03:25:55;100998.41;;;21.63;45.00
56518;BME280;42419;48.760;2.322;2022-08-21T03:28:21;100999.34;;;21.62;44.96
56518;BME280;42419;48.760;2.322;2022-08-21T03:30:49;100985.25;;;21.57;44.97
56518;BME280;42419;48.760;2.322;2022-08-21T03:33:15;100966.81;;;21.49;44.98
56518;BME280;42419;48.760;2.322;2022-08-21T03:35:45;100986.06;;;21.59;45.07
56518;BME280;42419;48.760;2.322;2022-08-21T03:38:12;100981.78;;;21.55;44.63
56518;BME280;42419;48.760;2.322;2022-08-21T03:40:38;100979.09;;;21.55;44.83
56518;BME280;42419;48.760;2.322;2022-08-21T03:43:03;100978.28;;;21.53;44.79
56518;BME280;42419;48.760;2.322;2022-08-21T03:45:29;100971.25;;;21.50;44.79
56518;BME280;42419;48.760;2.322;2022-08-21T03:48:00;100966.88;;;21.48;44.91
56518;BME280;42419;48.760;2.322;2022-08-21T03:50:29;100951.00;;;21.43;45.15
56518;BME280;42419;48.760;2.322;2022-08-21T03:52:55;100941.50;;;21.36;45.06
56518;BME280;42419;48.760;2.322;2022-08-21T03:55:20;100947.72;;;21.37;45.02
56518;BME280;42419;48.760;2.322;2022-08-21T03:57:47;100958.91;;;21.46;45.26
56518;BME280;42419;48.760;2.322;2022-08-21T04:00:14;100957.09;;;21.47;45.17
56518;BME280;42419;48.760;2.322;2022-08-21T04:02:40;100951.00;;;21.43;45.24
56518;BME280;42419;48.760;2.322;2022-08-21T04:05:06;100952.75;;;21.44;45.29
56518;BME280;42419;48.760;2.322;2022-08-21T04:07:32;100949.25;;;21.42;45.25
56518;BME280;42419;48.760;2.322;2022-08-21T04:09:58;100952.81;;;21.43;45.30
56518;BME280;42419;48.760;2.322;2022-08-21T04:12:23;100952.00;;;21.41;45.38
56518;BME280;42419;48.760;2.322;2022-08-21T04:14:49;100933.75;;;21.29;45.55
56518;BME280;42419;48.760;2.322;2022-08-21T04:17:17;100952.00;;;21.41;45.57
56518;BME280;42419;48.760;2.322;2022-08-21T04:19:42;100945.78;;;21.40;45.58
56518;BME280;42419;48.760;2.322;2022-08-21T04:22:07;100946.91;;;21.35;45.39
56518;BME280;42419;48.760;2.322;2022-08-21T04:24:33;100952.13;;;21.38;45.35
56518;BME280;42419;48.760;2.322;2022-08-21T04:26:58;100961.16;;;21.35;45.22
56518;BME280;42419;48.760;2.322;2022-08-21T04:29:23;100974.56;;;21.35;45.35
56518;BME280;42419;48.760;2.322;2022-08-21T04:31:49;100978.25;;;21.33;45.31
56518;BME280;42419;48.760;2.322;2022-08-21T04:34:14;100985.41;;;21.32;45.32
56518;BME280;42419;48.760;2.322;2022-08-21T04:36:39;100973.00;;;21.30;45.33
56518;BME280;42419;48.760;2.322;2022-08-21T04:39:05;100974.75;;;21.31;45.38
56518;BME280;42419;48.760;2.322;2022-08-21T04:41:30;100976.53;;;21.30;45.56
56518;BME280;42419;48.760;2.322;2022-08-21T04:43:56;100978.34;;;21.30;45.59
56518;BME280;42419;48.760;2.322;2022-08-21T04:46:22;100977.56;;;21.28;45.41
56518;BME280;42419;48.760;2.322;2022-08-21T04:48:48;100987.31;;;21.29;45.62
56518;BME280;42419;48.760;2.322;2022-08-21T04:51:23;100979.28;;;21.29;45.61
56518;BME280;42419;48.760;2.322;2022-08-21T04:53:56;100987.41;;;21.27;45.89
56518;BME280;42419;48.760;2.322;2022-08-21T04:56:27;100984.72;;;21.27;45.75
56518;BME280;42419;48.760;2.322;2022-08-21T04:58:55;100990.94;;;21.28;45.67
56518;BME280;42419;48.760;2.322;2022-08-21T05:01:23;100981.22;;;21.25;45.79
56518;BME280;42419;48.760;2.322;2022-08-21T05:03:51;100993.63;;;21.28;45.87
56518;BME280;42419;48.760;2.322;2022-08-21T05:06:17;100990.94;;;21.28;45.91
56518;BME280;42419;48.760;2.322;2022-08-21T05:08:44;100991.81;;;21.28;45.98
56518;BME280;42419;48.760;2.322;2022-08-21T05:11:11;100998.97;;;21.28;46.09
56518;BME280;42419;48.760;2.322;2022-08-21T05:13:36;100994.50;;;21.28;46.12
56518;BME280;42419;48.760;2.322;2022-08-21T05:16:02;100990.94;;;21.28;46.14
56518;BME280;42419;48.760;2.322;2022-08-21T05:18:27;100982.91;;;21.28;46.13
56518;BME280;42419;48.760;2.322;2022-08-21T05:20:52;100981.03;;;21.30;46.07
56518;BME280;42419;48.760;2.322;2022-08-21T05:23:18;100969.38;;;21.31;46.03
56518;BME280;42419;48.760;2.322;2022-08-21T05:25:43;100989.38;;;21.44;46.09
56518;BME280;42419;48.760;2.322;2022-08-21T05:28:09;100987.13;;;21.55;45.85
56518;BME280;42419;48.760;2.322;2022-08-21T05:30:36;100978.09;;;21.58;45.66
56518;BME280;42419;48.760;2.322;2022-08-21T05:33:03;100988.19;;;21.73;45.55
56518;BME280;42419;48.760;2.322;2022-08-21T05:35:30;100985.16;;;21.80;45.46
56518;BME280;42419;48.760;2.322;2022-08-21T05:37:57;100987.47;;;21.89;45.37
56518;BME280;42419;48.760;2.322;2022-08-21T05:40:23;100987.19;;;21.95;45.22
56518;BME280;42419;48.760;2.322;2022-08-21T05:42:53;100987.00;;;22.00;44.94
56518;BME280;42419;48.760;2.322;2022-08-21T05:45:19;100989.28;;;22.09;45.12
56518;BME280;42419;48.760;2.322;2022-08-21T05:47:44;100998.81;;;22.16;44.81
56518;BME280;42419;48.760;2.322;2022-08-21T05:50:10;100997.59;;;22.23;44.89
56518;BME280;42419;48.760;2.322;2022-08-21T05:52:35;100993.78;;;22.29;44.79
56518;BME280;42419;48.760;2.322;2022-08-21T05:55:00;100991.69;;;22.35;45.15
56518;BME280;42419;48.760;2.322;2022-08-21T05:57:26;100995.88;;;22.41;45.00
56518;BME280;42419;48.760;2.322;2022-08-21T05:59:52;100986.75;;;22.45;45.17
56518;BME280;42419;48.760;2.322;2022-08-21T06:02:19;100994.53;;;22.51;45.02
56518;BME280;42419;48.760;2.322;2022-08-21T06:04:45;100990.88;;;22.54;45.01
56518;BME280;42419;48.760;2.322;2022-08-21T06:07:10;100990.59;;;22.60;44.96
56518;BME280;42419;48.760;2.322;2022-08-21T06:09:36;100993.06;;;22.64;44.73
56518;BME280;42419;48.760;2.322;2022-08-21T06:12:07;100972.84;;;22.57;44.78
56518;BME280;42419;48.760;2.322;2022-08-21T06:14:34;100983.25;;;22.63;44.70
56518;BME280;42419;48.760;2.322;2022-08-21T06:17:04;100998.88;;;22.74;44.78
56518;BME280;42419;48.760;2.322;2022-08-21T06:19:29;101003.22;;;22.76;44.54
56518;BME280;42419;48.760;2.322;2022-08-21T06:21:55;100994.25;;;22.77;44.52
56518;BME280;42419;48.760;2.322;2022-08-21T06:24:20;100991.34;;;22.82;44.33
56518;BME280;42419;48.760;2.322;2022-08-21T06:26:46;100990.19;;;22.88;44.57
56518;BME280;42419;48.760;2.322;2022-08-21T06:29:12;100996.34;;;22.90;44.53
56518;BME280;42419;48.760;2.322;2022-08-21T06:31:42;100988.16;;;22.93;44.61
56518;BME280;42419;48.760;2.322;2022-08-21T06:34:07;100970.31;;;22.92;44.32
56518;BME280;42419;48.760;2.322;2022-08-21T06:36:33;100986.03;;;22.99;44.43
56518;BME280;42419;48.760;2.322;2022-08-21T06:38:58;100975.28;;;22.99;44.51
56518;BME280;42419;48.760;2.322;2022-08-21T06:41:24;100976.97;;;23.02;44.31
56518;BME280;42419;48.760;2.322;2022-08-21T06:43:49;100977.75;;;23.04;44.13
56518;BME280;42419;48.760;2.322;2022-08-21T06:46:15;100975.78;;;23.07;44.25
56518;BME280;42419;48.760;2.322;2022-08-21T06:48:40;100965.84;;;23.09;44.09
56518;BME280;42419;48.760;2.322;2022-08-21T06:51:05;100944.75;;;23.02;44.16
56518;BME280;42419;48.760;2.322;2022-08-21T06:53:31;100957.63;;;23.12;44.03
56518;BME280;42419;48.760;2.322;2022-08-21T06:55:56;100948.88;;;23.09;44.06
56518;BME280;42419;48.760;2.322;2022-08-21T06:58:22;100964.69;;;23.15;44.25
56518;BME280;42419;48.760;2.322;2022-08-21T07:00:49;100949.34;;;23.17;43.77
56518;BME280;42419;48.760;2.322;2022-08-21T07:03:31;100963.53;;;23.20;43.86
56518;BME280;42419;48.760;2.322;2022-08-21T07:05:57;100958.03;;;23.23;43.89
56518;BME280;42419;48.760;2.322;2022-08-21T07:08:24;100966.88;;;23.25;44.01
56518;BME280;42419;48.760;2.322;2022-08-21T07:10:49;100964.94;;;23.29;44.17
56518;BME280;42419;48.760;2.322;2022-08-21T07:13:15;100963.03;;;23.31;43.72
56518;BME280;42419;48.760;2.322;2022-08-21T07:15:41;100942.97;;;23.19;44.05
56518;BME280;42419;48.760;2.322;2022-08-21T07:18:06;100958.47;;;23.33;43.78
56518;BME280;42419;48.760;2.322;2022-08-21T07:20:33;100958.34;;;23.35;44.05
56518;BME280;42419;48.760;2.322;2022-08-21T07:23:01;100964.53;;;23.37;43.84
56518;BME280;42419;48.760;2.322;2022-08-21T07:25:28;100967.94;;;23.40;43.78
56518;BME280;42419;48.760;2.322;2022-08-21T07:27:54;100972.22;;;23.44;44.21
56518;BME280;42419;48.760;2.322;2022-08-21T07:30:19;100954.56;;;23.39;43.79
56518;BME280;42419;48.760;2.322;2022-08-21T07:32:45;100964.84;;;23.48;43.65
56518;BME280;42419;48.760;2.322;2022-08-21T07:35:11;100950.53;;;23.47;43.66
56518;BME280;42419;48.760;2.322;2022-08-21T07:37:36;100955.69;;;23.52;43.91
56518;BME280;42419;48.760;2.322;2022-08-21T07:40:03;100958.94;;;23.58;43.69
56518;BME280;42419;48.760;2.322;2022-08-21T07:42:28;100963.16;;;23.64;43.74
56518;BME280;42419;48.760;2.322;2022-08-21T07:44:54;100962.13;;;23.66;43.53
56518;BME280;42419;48.760;2.322;2022-08-21T07:47:20;100951.59;;;23.62;43.51
56518;BME280;42419;48.760;2.322;2022-08-21T07:49:45;100961.81;;;23.72;43.58
56518;BME280;42419;48.760;2.322;2022-08-21T07:52:11;100962.53;;;23.76;43.74
56518;BME280;42419;48.760;2.322;2022-08-21T07:54:37;100951.84;;;23.74;44.17
56518;BME280;42419;48.760;2.322;2022-08-21T07:57:02;100951.84;;;23.74;43.89
56518;BME280;42419;48.760;2.322;2022-08-21T07:59:28;100960.41;;;23.83;43.74
56518;BME280;42419;48.760;2.322;2022-08-21T08:01:54;100950.59;;;23.82;43.43
56518;BME280;42419;48.760;2.322;2022-08-21T08:04:19;100956.47;;;23.90;43.85
56518;BME280;42419;48.760;2.322;2022-08-21T08:06:44;100952.66;;;23.94;43.41
56518;BME280;42419;48.760;2.322;2022-08-21T08:09:10;100889.63;;;23.65;43.42
56518;BME280;42419;48.760;2.322;2022-08-21T08:11:37;100955.75;;;24.03;42.78
56518;BME280;42419;48.760;2.322;2022-08-21T08:14:05;100949.31;;;24.06;43.04
56518;BME280;42419;48.760;2.322;2022-08-21T08:16:31;100947.19;;;24.12;43.12
56518;BME280;42419;48.760;2.322;2022-08-21T08:18:56;100942.50;;;24.16;42.83
56518;BME280;42419;48.760;2.322;2022-08-21T08:21:21;100916.25;;;24.04;42.74
56518;BME280;42419;48.760;2.322;2022-08-21T08:23:47;100937.31;;;24.13;42.86
56518;BME280;42419;48.760;2.322;2022-08-21T08:26:13;100940.44;;;24.21;42.81
56518;BME280;42419;48.760;2.322;2022-08-21T08:28:40;100943.75;;;24.26;43.16
56518;BME280;42419;48.760;2.322;2022-08-21T08:31:05;100949.66;;;24.33;42.46
56518;BME280;42419;48.760;2.322;2022-08-21T08:33:31;100942.31;;;24.36;43.01
56518;BME280;42419;48.760;2.322;2022-08-21T08:35:56;100915.97;;;24.26;43.35
56518;BME280;42419;48.760;2.322;2022-08-21T08:38:24;100940.31;;;24.40;42.89
56518;BME280;42419;48.760;2.322;2022-08-21T08:41:12;100945.59;;;24.41;42.84
56518;BME280;42419;48.760;2.322;2022-08-21T08:43:38;100934.00;;;24.41;42.74
56518;BME280;42419;48.760;2.322;2022-08-21T08:46:11;100938.31;;;24.43;42.44
56518;BME280;42419;48.760;2.322;2022-08-21T08:48:52;100937.38;;;24.44;42.45
56518;BME280;42419;48.760;2.322;2022-08-21T08:54:14;100940.16;;;24.43;42.12
56518;BME280;42419;48.760;2.322;2022-08-21T08:56:40;100929.56;;;24.40;42.31
56518;BME280;42419;48.760;2.322;2022-08-21T08:59:12;100914.44;;;24.37;42.29
56518;BME280;42419;48.760;2.322;2022-08-21T09:01:39;100918.94;;;24.37;42.52
56518;BME280;42419;48.760;2.322;2022-08-21T09:04:05;100930.94;;;24.47;42.27
56518;BME280;42419;48.760;2.322;2022-08-21T09:06:45;100931.59;;;24.52;41.92
56518;BME280;42419;48.760;2.322;2022-08-21T09:09:41;100925.28;;;24.53;41.51
56518;BME280;42419;48.760;2.322;2022-08-21T09:12:16;100858.16;;;24.17;41.80
56518;BME280;42419;48.760;2.322;2022-08-21T09:14:51;100915.00;;;24.59;42.03
56518;BME280;42419;48.760;2.322;2022-08-21T09:25:24;100884.44;;;24.60;41.82
56518;BME280;42419;48.760;2.322;2022-08-21T09:27:50;100905.03;;;24.77;42.06
56518;BME280;42419;48.760;2.322;2022-08-21T09:30:17;100889.94;;;24.75;41.66
56518;BME280;42419;48.760;2.322;2022-08-21T09:32:43;100892.44;;;24.78;41.53
56518;BME280;42419;48.760;2.322;2022-08-21T09:40:44;100908.25;;;24.84;40.90
56518;BME280;42419;48.760;2.322;2022-08-21T09:43:22;100906.34;;;24.86;40.04
56518;BME280;42419;48.760;2.322;2022-08-21T09:46:02;100910.63;;;24.90;39.82
56518;BME280;42419;48.760;2.322;2022-08-21T09:48:28;100913.19;;;24.91;40.23
56518;BME280;42419;48.760;2.322;2022-08-21T09:51:13;100899.03;;;24.88;39.35
56518;BME280;42419;48.760;2.322;2022-08-21T09:53:44;100911.13;;;24.96;39.52
56518;BME280;42419;48.760;2.322;2022-08-21T09:59:19;100908.16;;;25.01;38.97
56518;BME280;42419;48.760;2.322;2022-08-21T10:01:48;100886.00;;;24.96;39.13
56518;BME280;42419;48.760;2.322;2022-08-21T10:04:14;100894.34;;;25.07;39.04
56518;BME280;42419;48.760;2.322;2022-08-21T10:06:40;100878.53;;;25.01;38.92
56518;BME280;42419;48.760;2.322;2022-08-21T10:09:08;100890.94;;;25.03;38.71
56518;BME280;42419;48.760;2.322;2022-08-21T10:11:35;100857.78;;;24.87;38.63
56518;BME280;42419;48.760;2.322;2022-08-21T10:22:20;100869.56;;;25.00;38.04
56518;BME280;42419;48.760;2.322;2022-08-21T10:25:06;100868.81;;;24.98;37.53
56518;BME280;42419;48.760;2.322;2022-08-21T10:30:52;100852.81;;;24.95;37.60
56518;BME280;42419;48.760;2.322;2022-08-21T10:38:49;100834.66;;;24.83;37.54
56518;BME280;42419;48.760;2.322;2022-08-21T10:41:29;100844.91;;;24.77;37.33
56518;BME280;42419;48.760;2.322;2022-08-21T10:46:51;100845.53;;;24.66;36.83
56518;BME280;42419;48.760;2.322;2022-08-21T10:49:52;100842.94;;;24.65;36.87
56518;BME280;42419;48.760;2.322;2022-08-21T10:52:51;100819.06;;;24.58;37.92
56518;BME280;42419;48.760;2.322;2022-08-21T10:55:22;100829.66;;;24.62;38.17
56518;BME280;42419;48.760;2.322;2022-08-21T10:57:59;100841.19;;;24.64;38.06
56518;BME280;42419;48.760;2.322;2022-08-21T11:00:51;100828.34;;;24.69;37.89
56518;BME280;42419;48.760;2.322;2022-08-21T11:08:41;100840.31;;;24.79;37.94
56518;BME280;42419;48.760;2.322;2022-08-21T11:11:10;100827.81;;;24.78;38.11
56518;BME280;42419;48.760;2.322;2022-08-21T11:13:47;100821.81;;;24.73;37.95
56518;BME280;42419;48.760;2.322;2022-08-21T11:19:02;100838.84;;;24.73;38.35
56518;BME280;42419;48.760;2.322;2022-08-21T11:21:42;100841.66;;;24.72;38.57
56518;BME280;42419;48.760;2.322;2022-08-21T11:29:47;100789.50;;;24.41;38.11
56518;BME280;42419;48.760;2.322;2022-08-21T11:40:37;100842.53;;;25.18;38.63
56518;BME280;42419;48.760;2.322;2022-08-21T11:45:42;100824.53;;;25.18;38.16
56518;BME280;42419;48.760;2.322;2022-08-21T11:48:21;100839.81;;;25.33;37.92
56518;BME280;42419;48.760;2.322;2022-08-21T11:50:51;100762.09;;;24.96;38.26
56518;BME280;42419;48.760;2.322;2022-08-21T11:56:02;100837.44;;;25.57;37.80
56518;BME280;42419;48.760;2.322;2022-08-21T11:58:37;100834.06;;;25.54;38.52
56518;BME280;42419;48.760;2.322;2022-08-21T12:01:11;100826.16;;;25.51;38.26
56518;BME280;42419;48.760;2.322;2022-08-21T12:03:44;100823.75;;;25.46;38.48
56518;BME280;42419;48.760;2.322;2022-08-21T12:06:15;100820.38;;;25.42;38.17
56518;BME280;42419;48.760;2.322;2022-08-21T12:09:03;100837.03;;;25.49;38.50
56518;BME280;42419;48.760;2.322;2022-08-21T12:11:29;100828.06;;;25.48;38.40
56518;BME280;42419;48.760;2.322;2022-08-21T12:14:14;100807.38;;;25.49;38.46
56518;BME280;42419;48.760;2.322;2022-08-21T12:16:45;100816.16;;;25.53;38.75
56518;BME280;42419;48.760;2.322;2022-08-21T12:19:29;100816.16;;;25.53;39.46
56518;BME280;42419;48.760;2.322;2022-08-21T12:25:02;100802.69;;;25.67;39.10
56518;BME280;42419;48.760;2.322;2022-08-21T12:27:41;100809.09;;;25.80;39.06
56518;BME280;42419;48.760;2.322;2022-08-21T12:30:39;100780.41;;;25.79;38.83
56518;BME280;42419;48.760;2.322;2022-08-21T12:35:43;100798.88;;;25.85;38.82
56518;BME280;42419;48.760;2.322;2022-08-21T12:38:18;100798.28;;;25.80;39.07
56518;BME280;42419;48.760;2.322;2022-08-21T12:41:06;100807.53;;;25.76;38.79
56518;BME280;42419;48.760;2.322;2022-08-21T12:43:38;100793.47;;;25.71;38.55
56518;BME280;42419;48.760;2.322;2022-08-21T12:46:06;100792.44;;;25.73;38.78
56518;BME280;42419;48.760;2.322;2022-08-21T12:48:46;100798.88;;;25.71;38.79
56518;BME280;42419;48.760;2.322;2022-08-21T12:51:23;100790.19;;;25.66;38.38
56518;BME280;42419;48.760;2.322;2022-08-21T12:53:55;100792.19;;;25.62;39.29
56518;BME280;42419;48.760;2.322;2022-08-21T12:56:25;100786.91;;;25.61;38.58
56518;BME280;42419;48.760;2.322;2022-08-21T12:59:04;100784.28;;;25.59;38.71
56518;BME280;42419;48.760;2.322;2022-08-21T13:04:02;100768.69;;;25.50;39.23
56518;BME280;42419;48.760;2.322;2022-08-21T13:06:32;100794.19;;;25.59;38.69
56518;BME280;42419;48.760;2.322;2022-08-21T13:09:05;100788.72;;;25.60;38.93
56518;BME280;42419;48.760;2.322;2022-08-21T13:11:32;100787.06;;;25.58;38.83
56518;BME280;42419;48.760;2.322;2022-08-21T13:13:57;100786.50;;;25.67;38.69
56518;BME280;42419;48.760;2.322;2022-08-21T13:16:27;100788.50;;;25.79;38.81
56518;BME280;42419;48.760;2.322;2022-08-21T13:19:02;100787.50;;;25.80;38.51
56518;BME280;42419;48.760;2.322;2022-08-21T13:21:31;100774.00;;;25.80;38.19
56518;BME280;42419;48.760;2.322;2022-08-21T13:24:25;100777.56;;;25.95;38.02
56518;BME280;42419;48.760;2.322;2022-08-21T13:26:52;100752.63;;;25.91;38.66
56518;BME280;42419;48.760;2.322;2022-08-21T13:29:21;100757.94;;;25.92;38.25
56518;BME280;42419;48.760;2.322;2022-08-21T13:31:53;100772.84;;;25.98;38.01
56518;BME280;42419;48.760;2.322;2022-08-21T13:34:23;100770.28;;;25.97;37.96
56518;BME280;42419;48.760;2.322;2022-08-21T13:36:52;100771.22;;;25.96;37.57
56518;BME280;42419;48.760;2.322;2022-08-21T13:39:20;100777.00;;;26.04;37.28
56518;BME280;42419;48.760;2.322;2022-08-21T13:41:48;100770.63;;;26.05;36.93
56518;BME280;42419;48.760;2.322;2022-08-21T13:44:21;100770.44;;;26.08;36.94
56518;BME280;42419;48.760;2.322;2022-08-21T13:46:47;100769.38;;;26.10;36.58
56518;BME280;42419;48.760;2.322;2022-08-21T13:49:16;100742.78;;;26.04;36.58
56518;BME280;42419;48.760;2.322;2022-08-21T13:51:42;100758.97;;;26.18;36.17
56518;BME280;42419;48.760;2.322;2022-08-21T13:54:38;100747.19;;;26.19;36.15
56518;BME280;42419;48.760;2.322;2022-08-21T13:57:25;100749.31;;;26.14;36.27
56518;BME280;42419;48.760;2.322;2022-08-21T13:59:52;100740.81;;;26.20;36.45
56518;BME280;42419;48.760;2.322;2022-08-21T14:02:20;100743.22;;;26.25;36.25
56518;BME280;42419;48.760;2.322;2022-08-21T14:04:58;100737.25;;;26.20;35.56
56518;BME280;42419;48.760;2.322;2022-08-21T14:07:35;100760.28;;;26.25;35.87
56518;BME280;42419;48.760;2.322;2022-08-21T14:10:22;100747.28;;;26.18;36.15
56518;BME280;42419;48.760;2.322;2022-08-21T14:12:53;100731.59;;;26.10;36.62